createdAt,value
2022-11-09T00:01:06.661Z,100160.69
2022-11-09T00:03:46.827Z,100152.03
2022-11-09T00:06:26.951Z,100154.25
2022-11-09T00:09:10.484Z,100156.09
2022-11-09T00:11:51.043Z,100156.09
2022-11-09T00:14:30.896Z,100149.25
2022-11-09T00:17:12.331Z,100142.97
2022-11-09T00:19:53.689Z,100151.56
2022-11-09T00:22:35.064Z,100147.03
2022-11-09T00:25:14.919Z,100139.78
2022-11-09T00:27:56.256Z,100134.25
2022-11-09T00:30:39.281Z,100142.06
2022-11-09T00:33:19.446Z,100135.91
2022-11-09T00:36:00.615Z,100133.44
2022-11-09T00:38:42.459Z,100127.25
2022-11-09T00:41:25.572Z,100120.25
2022-11-09T00:44:18.161Z,100124.03
2022-11-09T00:47:01.530Z,100121.75
2022-11-09T00:49:44.474Z,100119.06
2022-11-09T00:52:23.559Z,100120.09
2022-11-09T00:55:03.726Z,100113.09
2022-11-09T00:57:45.113Z,100124.59
2022-11-09T01:00:26.591Z,100125.06
2022-11-09T01:03:07.993Z,100123.22
2022-11-09T01:05:49.386Z,100127.09
2022-11-09T01:08:30.825Z,100117.44
2022-11-09T01:11:12.387Z,100130.41
2022-11-09T01:13:55.704Z,100117.69
2022-11-09T01:16:37.027Z,100124.09
2022-11-09T01:19:17.999Z,100130.56
2022-11-09T01:21:59.425Z,100120.13
2022-11-09T01:24:42.409Z,100114.59
2022-11-09T01:27:22.231Z,100120.72
2022-11-09T01:30:00.109Z,100125.84
2022-11-09T01:32:38.314Z,100127.69
2022-11-09T01:35:22.080Z,100125.25
2022-11-09T01:38:05.479Z,100129.13
2022-11-09T01:40:47.632Z,100129.50
2022-11-09T01:43:27.493Z,100124.16
2022-11-09T01:46:10.930Z,100124.81
2022-11-09T01:48:53.562Z,100122.50
2022-11-09T01:51:54.816Z,100117.81
2022-11-09T01:55:00.304Z,100116.78
2022-11-09T01:57:42.786Z,100115.59
2022-11-09T02:00:24.106Z,100115.97
2022-11-09T02:03:06.275Z,100116.16
2022-11-09T02:05:50.313Z,100114.31
2022-11-09T02:08:31.420Z,100118.81
2022-11-09T02:11:13.198Z,100119.16
2022-11-09T02:13:54.804Z,100121.19
2022-11-09T02:16:35.612Z,100115.50
2022-11-09T02:19:16.943Z,100111.53
2022-11-09T02:21:54.819Z,100114.22
2022-11-09T02:24:38.156Z,100115.41
2022-11-09T02:27:17.997Z,100118.06
2022-11-09T02:29:59.382Z,100105.72
2022-11-09T02:32:39.236Z,100108.41
2022-11-09T02:35:19.006Z,100104.84
2022-11-09T02:38:02.432Z,100106.09
2022-11-09T02:40:42.956Z,100103.97
2022-11-09T02:43:25.361Z,100106.19
2022-11-09T02:46:10.348Z,100102.31
2022-11-09T02:48:48.949Z,100097.34
2022-11-09T02:51:29.019Z,100092.22
2022-11-09T02:54:08.924Z,100080.31
2022-11-09T02:56:50.267Z,100087.88
2022-11-09T02:59:33.661Z,100087.88
2022-11-09T03:02:14.766Z,100088.63
2022-11-09T03:04:54.134Z,100089.38
2022-11-09T03:07:34.280Z,100090.38
2022-11-09T03:10:14.080Z,100092.41
2022-11-09T03:12:56.162Z,100093.22
2022-11-09T03:15:38.721Z,100096.53
2022-11-09T03:18:23.537Z,100096.53
2022-11-09T03:21:04.745Z,100100.22
2022-11-09T03:23:45.994Z,100098.94
2022-11-09T03:26:27.430Z,100100.22
2022-11-09T03:29:09.088Z,100105.94
2022-11-09T03:31:48.197Z,100108.16
2022-11-09T03:34:30.379Z,100099.53
2022-11-09T03:37:14.507Z,100098.69
2022-11-09T03:39:56.347Z,100107.91
2022-11-09T03:42:37.447Z,100105.59
2022-11-09T03:45:20.954Z,100104.59
2022-11-09T03:48:01.788Z,100104.47
2022-11-09T03:50:41.660Z,100104.28
2022-11-09T03:53:23.193Z,100105.22
2022-11-09T03:56:04.418Z,100113.88
2022-11-09T03:58:44.214Z,100105.94
2022-11-09T04:01:24.131Z,100102.19
2022-11-09T04:04:08.480Z,100098.78
2022-11-09T04:06:50.489Z,100096.75
2022-11-09T04:09:30.571Z,100094.06
2022-11-09T04:12:11.282Z,100099.91
2022-11-09T04:14:53.374Z,100096.75
2022-11-09T04:17:34.141Z,100096.09
2022-11-09T04:20:15.603Z,100103.28
2022-11-09T04:22:57.445Z,100100.28
2022-11-09T04:25:36.939Z,100101.44
2022-11-09T04:28:18.104Z,100097.59
2022-11-09T04:31:00.516Z,100099.78
2022-11-09T04:33:41.111Z,100098.97
2022-11-09T04:36:22.488Z,100102.00
2022-11-09T04:39:03.823Z,100102.19
2022-11-09T04:41:47.153Z,100103.75
2022-11-09T04:44:30.255Z,100098.44
2022-11-09T04:47:11.154Z,100106.81
2022-11-09T04:49:50.967Z,100097.97
2022-11-09T04:52:32.965Z,100099.50
2022-11-09T04:55:13.796Z,100105.41
2022-11-09T04:57:55.610Z,100091.25
2022-11-09T05:00:36.636Z,100094.63
2022-11-09T05:03:16.774Z,100093.94
2022-11-09T05:05:57.894Z,100093.31
2022-11-09T05:08:39.192Z,100098.63
2022-11-09T05:11:19.224Z,100100.03
2022-11-09T05:14:00.515Z,100102.41
2022-11-09T05:16:43.887Z,100103.06
2022-11-09T05:19:26.839Z,100107.75
2022-11-09T05:22:21.877Z,100103.41
2022-11-09T05:25:04.083Z,100108.94
2022-11-09T05:27:45.073Z,100112.13
2022-11-09T05:30:25.046Z,100116.81
2022-11-09T05:33:06.410Z,100120.69
2022-11-09T05:35:45.809Z,100122.06
2022-11-09T05:38:27.307Z,100112.75
2022-11-09T05:41:09.394Z,100120.94
2022-11-09T05:43:50.401Z,100123.28
2022-11-09T05:46:33.314Z,100114.84
2022-11-09T05:49:15.128Z,100124.50
2022-11-09T05:51:56.620Z,100124.81
2022-11-09T05:54:35.618Z,100118.97
2022-11-09T05:57:15.853Z,100117.50
2022-11-09T05:59:55.231Z,100117.50
2022-11-09T06:02:35.439Z,100129.00
2022-11-09T06:05:17.086Z,100124.03
2022-11-09T06:07:58.200Z,100116.69
2022-11-09T06:10:38.041Z,100114.19
2022-11-09T06:13:18.160Z,100115.38
2022-11-09T06:15:57.791Z,100115.19
2022-11-09T06:18:41.054Z,100112.16
2022-11-09T06:21:22.069Z,100114.38
2022-11-09T06:24:05.598Z,100125.22
2022-11-09T06:26:46.437Z,100117.41
2022-11-09T06:29:26.279Z,100119.94
2022-11-09T06:32:06.339Z,100114.44
2022-11-09T06:34:49.757Z,100127.09
2022-11-09T06:37:33.476Z,100122.50
2022-11-09T06:40:14.640Z,100121.84
2022-11-09T06:42:59.012Z,100124.50
2022-11-09T06:45:39.552Z,100123.84
2022-11-09T06:48:21.032Z,100123.69
2022-11-09T06:51:02.832Z,100124.31
2022-11-09T06:53:43.749Z,100136.66
2022-11-09T06:56:23.531Z,100130.66
2022-11-09T06:59:05.344Z,100136.47
2022-11-09T07:01:44.486Z,100140.13
2022-11-09T07:04:26.671Z,100137.28
2022-11-09T07:07:26.424Z,100143.44
2022-11-09T07:10:07.374Z,100140.75
2022-11-09T07:12:49.031Z,100149.38
2022-11-09T07:15:32.153Z,100151.88
2022-11-09T07:18:13.351Z,100154.19
2022-11-09T07:20:54.460Z,100151.16
2022-11-09T07:23:49.951Z,100157.13
2022-11-09T07:26:30.678Z,100160.09
2022-11-09T07:29:13.933Z,100167.28
2022-11-09T07:31:57.067Z,100162.59
2022-11-09T07:34:37.993Z,100156.59
2022-11-09T07:37:18.782Z,100158.25
2022-11-09T07:39:59.845Z,100164.44
2022-11-09T07:42:54.792Z,100163.59
2022-11-09T07:45:37.535Z,100166.25
2022-11-09T07:48:20.401Z,100168.94
2022-11-09T07:51:03.607Z,100169.75
2022-11-09T07:53:44.414Z,100167.28
2022-11-09T07:56:24.225Z,100172.25
2022-11-09T07:59:04.025Z,100178.41
2022-11-09T08:01:43.903Z,100179.69
2022-11-09T08:04:25.324Z,100175.84
2022-11-09T08:07:06.818Z,100191.66
2022-11-09T08:09:50.052Z,100189.81
2022-11-09T08:12:37.105Z,100194.16
2022-11-09T08:15:17.333Z,100184.81
2022-11-09T08:18:01.483Z,100191.44
2022-11-09T08:20:41.659Z,100193.44
2022-11-09T08:23:23.359Z,100199.59
2022-11-09T08:26:06.187Z,100201.72
2022-11-09T08:28:47.492Z,100198.06
2022-11-09T08:31:27.579Z,100197.31
2022-11-09T08:34:11.196Z,100194.47
2022-11-09T08:36:51.763Z,100187.16
2022-11-09T08:39:31.511Z,100198.78
2022-11-09T08:42:11.388Z,100195.56
2022-11-09T08:44:52.768Z,100203.50
2022-11-09T08:47:34.467Z,100203.13
2022-11-09T08:50:17.599Z,100203.41
2022-11-09T09:03:23.405Z,100212.47
2022-11-09T09:06:08.805Z,100212.09
2022-11-09T09:08:49.199Z,100210.72
2022-11-09T09:11:30.761Z,100212.09
2022-11-09T09:14:11.914Z,100214.22
2022-11-09T09:16:51.736Z,100213.84
2022-11-09T09:19:34.682Z,100213.91
2022-11-09T09:22:14.579Z,100225.16
2022-11-09T09:24:54.462Z,100229.47
2022-11-09T09:27:35.974Z,100229.56
2022-11-09T09:30:17.395Z,100235.81
2022-11-09T09:33:00.909Z,100240.16
2022-11-09T09:35:41.596Z,100245.56
2022-11-09T09:38:23.594Z,100236.28
2022-11-09T09:41:05.093Z,100240.63
2022-11-09T09:43:46.371Z,100254.44
2022-11-09T09:46:27.818Z,100238.53
2022-11-09T09:49:10.521Z,100250.63
2022-11-09T09:51:55.079Z,100250.06
2022-11-09T09:54:36.770Z,100246.00
2022-11-09T09:57:20.455Z,100243.28
2022-11-09T10:00:01.791Z,100241.56
2022-11-09T10:02:53.726Z,100246.34
2022-11-09T10:05:38.847Z,100258.50
2022-11-09T10:08:20.471Z,100254.75
2022-11-09T10:11:02.604Z,100262.19
2022-11-09T10:13:48.286Z,100252.56
2022-11-09T10:16:29.171Z,100262.69
2022-11-09T10:19:29.286Z,100254.31
2022-11-09T10:22:16.057Z,100268.53
2022-11-09T10:25:20.817Z,100264.28
2022-11-09T10:28:00.784Z,100275.19
2022-11-09T10:30:41.966Z,100267.78
2022-11-09T10:33:23.234Z,100259.47
2022-11-09T10:36:08.485Z,100256.88
2022-11-09T10:38:48.262Z,100256.25
2022-11-09T10:41:48.281Z,100250.66
2022-11-09T10:44:47.198Z,100255.13
2022-11-09T10:47:50.120Z,100268.09
2022-11-09T10:50:49.222Z,100247.25
2022-11-09T10:53:47.107Z,100245.94
2022-11-09T10:57:05.381Z,100248.97
2022-11-09T11:00:27.565Z,100244.66
2022-11-09T11:03:26.041Z,100248.56
2022-11-09T11:06:31.296Z,100248.13
2022-11-09T11:09:32.434Z,100247.53
2022-11-09T11:12:33.093Z,100267.16
2022-11-09T11:15:36.665Z,100271.53
2022-11-09T11:18:49.325Z,100269.44
2022-11-09T11:21:47.856Z,100270.25
2022-11-09T11:24:47.884Z,100264.28
2022-11-09T11:27:48.865Z,100279.75
2022-11-09T11:30:48.065Z,100279.91
2022-11-09T11:33:49.364Z,100274.50
2022-11-09T11:36:52.859Z,100271.41
2022-11-09T11:39:57.562Z,100267.72
2022-11-09T11:43:19.064Z,100262.56
2022-11-09T11:46:42.391Z,100252.91
2022-11-09T11:49:47.614Z,100263.03
2022-11-09T11:53:06.665Z,100276.88
2022-11-09T11:56:16.602Z,100263.63
2022-11-09T11:59:34.416Z,100274.81
2022-11-09T12:02:56.524Z,100268.59
2022-11-09T12:05:59.730Z,100269.84
2022-11-09T12:09:08.930Z,100272.72
2022-11-09T12:12:13.783Z,100270.66
2022-11-09T12:15:19.663Z,100276.69
2022-11-09T12:18:22.390Z,100289.03
2022-11-09T12:21:24.146Z,100291.31
2022-11-09T12:24:27.563Z,100288.22
2022-11-09T12:27:34.906Z,100282.25
2022-11-09T12:30:40.922Z,100288.44
2022-11-09T12:33:46.052Z,100281.81
2022-11-09T12:36:45.855Z,100280.16
2022-11-09T12:39:47.666Z,100287.22
2022-11-09T12:42:49.491Z,100274.81
2022-11-09T12:45:50.132Z,100291.31
2022-11-09T12:48:50.668Z,100283.47
2022-11-09T12:51:49.221Z,100284.72
2022-11-09T12:54:48.864Z,100297.94
2022-11-09T12:57:49.273Z,100284.09
2022-11-09T13:00:51.282Z,100281.63
2022-11-09T13:03:55.090Z,100277.69
2022-11-09T13:07:13.596Z,100282.88
2022-11-09T13:10:23.026Z,100280.81
2022-11-09T13:13:23.796Z,100283.06
2022-11-09T13:16:36.187Z,100272.53
2022-11-09T13:19:52.483Z,100283.06
2022-11-09T13:23:00.331Z,100291.97
2022-11-09T13:26:02.048Z,100303.72
2022-11-09T13:29:16.834Z,100295.88
2022-11-09T13:32:36.336Z,100299.97
2022-11-09T13:35:55.483Z,100301.44
2022-11-09T13:39:12.653Z,100304.47
2022-11-09T13:42:22.752Z,100306.22
2022-11-09T13:45:33.217Z,100299.75
2022-11-09T13:48:50.001Z,100305.50
2022-11-09T13:51:48.764Z,100308.75
2022-11-09T13:54:47.744Z,100302.94
2022-11-09T13:57:47.036Z,100311.50
2022-11-09T14:00:47.994Z,100304.28
2022-11-09T14:03:51.053Z,100307.47
2022-11-09T14:06:50.297Z,100319.97
2022-11-09T14:09:53.804Z,100312.09
2022-11-09T14:13:00.331Z,100326.50
2022-11-09T14:16:02.192Z,100322.31
2022-11-09T14:19:07.423Z,100332.72
2022-11-09T14:22:12.242Z,100317.66
2022-11-09T14:25:16.916Z,100322.28
2022-11-09T14:28:23.526Z,100324.69
2022-11-09T14:31:25.023Z,100333.38
2022-11-09T14:34:24.672Z,100334.34
2022-11-09T14:37:23.480Z,100335.47
2022-11-09T14:40:32.937Z,100343.88
2022-11-09T14:43:33.700Z,100351.09
2022-11-09T14:46:43.849Z,100356.22
2022-11-09T14:49:42.720Z,100357.44
2022-11-09T14:52:41.708Z,100360.09
2022-11-09T14:55:41.300Z,100359.38
2022-11-09T14:58:43.594Z,100362.81
2022-11-09T15:01:43.543Z,100351.47
2022-11-09T15:04:55.831Z,100361.16
2022-11-09T15:07:54.327Z,100371.03
2022-11-09T15:10:53.713Z,100370.84
2022-11-09T15:13:54.377Z,100366.25
2022-11-09T15:16:53.755Z,100361.25
2022-11-09T15:19:56.224Z,100359.47
2022-11-09T15:22:56.247Z,100357.75
2022-11-09T15:25:57.799Z,100362.50
2022-11-09T15:29:00.007Z,100357.53
2022-11-09T15:32:02.290Z,100370.53
2022-11-09T15:35:03.449Z,100376.56
2022-11-09T15:38:03.067Z,100379.97
2022-11-09T15:41:02.898Z,100386.22
2022-11-09T15:44:01.629Z,100395.41
2022-11-09T15:47:00.631Z,100392.66
2022-11-09T15:50:02.063Z,100399.41
2022-11-09T15:53:02.092Z,100398.09
2022-11-09T15:56:01.125Z,100400.16
2022-11-09T15:59:01.852Z,100403.00
2022-11-09T16:02:02.478Z,100404.94
2022-11-09T16:05:01.055Z,100407.81
2022-11-09T16:08:01.095Z,100406.03
2022-11-09T16:11:20.007Z,100412.22
2022-11-09T16:14:21.459Z,100416.22
2022-11-09T16:17:23.138Z,100410.75
2022-11-09T16:20:21.726Z,100411.63
2022-11-09T16:23:21.736Z,100418.47
2022-11-09T16:26:40.555Z,100418.47
2022-11-09T16:29:41.548Z,100422.50
2022-11-09T16:32:42.162Z,100422.50
2022-11-09T16:35:42.735Z,100427.97
2022-11-09T16:38:41.757Z,100429.31
2022-11-09T16:41:42.734Z,100431.47
2022-11-09T16:44:43.199Z,100433.13
2022-11-09T16:47:43.476Z,100441.13
2022-11-09T16:50:42.191Z,100436.47
2022-11-09T16:53:51.294Z,100438.28
2022-11-09T16:56:50.782Z,100437.97
2022-11-09T16:59:52.742Z,100447.44
2022-11-09T17:02:53.312Z,100444.44
2022-11-09T17:05:55.421Z,100455.41
2022-11-09T17:08:57.775Z,100455.03
2022-11-09T17:11:59.836Z,100463.38
2022-11-09T17:14:58.443Z,100462.41
2022-11-09T17:17:59.485Z,100470.56
2022-11-09T17:20:58.064Z,100475.25
2022-11-09T17:23:57.372Z,100466.25
2022-11-09T17:26:56.076Z,100479.09
2022-11-09T17:29:55.061Z,100474.78
2022-11-09T17:33:03.981Z,100479.81
2022-11-09T17:36:05.591Z,100482.97
2022-11-09T17:39:07.179Z,100493.50
2022-11-09T17:42:05.860Z,100503.84
2022-11-09T17:45:08.224Z,100503.03
2022-11-09T17:48:08.139Z,100505.50
2022-11-09T17:51:09.719Z,100512.50
2022-11-09T17:54:11.843Z,100517.66
2022-11-09T17:57:12.564Z,100518.34
2022-11-09T18:00:15.364Z,100519.19
2022-11-09T18:03:14.775Z,100536.84
2022-11-09T18:06:16.491Z,100534.84
2022-11-09T18:09:40.414Z,100536.19
2022-11-09T18:12:35.871Z,100535.00
2022-11-09T18:15:38.475Z,100541.16
2022-11-09T18:18:40.587Z,100529.19
2022-11-09T18:21:39.214Z,100536.03
2022-11-09T18:24:40.202Z,100542.53
2022-11-09T18:27:40.783Z,100546.84
2022-11-09T18:30:41.530Z,100539.38
2022-11-09T18:33:39.877Z,100548.03
2022-11-09T18:36:39.051Z,100531.56
2022-11-09T18:39:38.028Z,100543.38
2022-11-09T18:42:37.239Z,100549.19
2022-11-09T18:45:36.031Z,100549.69
2022-11-09T18:48:35.714Z,100554.19
2022-11-09T18:51:35.660Z,100553.34
2022-11-09T18:54:37.659Z,100550.72
2022-11-09T18:57:38.951Z,100566.88
2022-11-09T19:00:39.068Z,100573.03
2022-11-09T19:03:38.084Z,100580.47
2022-11-09T19:06:35.525Z,100581.66
2022-11-09T19:09:44.668Z,100584.16
2022-11-09T19:12:43.315Z,100586.81
2022-11-09T19:15:44.350Z,100595.47
2022-11-09T19:18:42.912Z,100592.63
2022-11-09T19:21:44.521Z,100605.13
2022-11-09T19:24:44.188Z,100602.78
2022-11-09T19:27:48.184Z,100600.13
2022-11-09T19:30:49.011Z,100606.13
2022-11-09T19:33:49.711Z,100607.41
2022-11-09T19:36:50.390Z,100615.13
2022-11-09T19:39:50.678Z,100615.25
2022-11-09T19:42:49.405Z,100626.22
2022-11-09T19:45:50.396Z,100630.06
2022-11-09T19:49:11.802Z,100628.72
2022-11-09T19:52:10.540Z,100644.41
2022-11-09T19:55:09.901Z,100640.91
2022-11-09T19:58:10.495Z,100644.69
2022-11-09T20:01:30.283Z,100655.34
2022-11-09T20:04:33.070Z,100657.34
2022-11-09T20:07:33.747Z,100668.66
2022-11-09T20:10:37.741Z,100674.66
2022-11-09T20:13:37.849Z,100654.84
2022-11-09T20:16:38.385Z,100661.69
2022-11-09T20:19:40.316Z,100672.81
2022-11-09T20:22:40.936Z,100675.53
2022-11-09T20:25:39.517Z,100681.69
2022-11-09T20:28:40.512Z,100687.84
2022-11-09T20:31:39.296Z,100691.34
2022-11-09T20:34:38.219Z,100695.69
2022-11-09T20:37:38.275Z,100693.69
2022-11-09T20:40:37.716Z,100702.34
2022-11-09T20:43:37.970Z,100702.00
2022-11-09T20:46:39.566Z,100703.69
2022-11-09T20:49:42.556Z,100715.66
2022-11-09T20:52:41.749Z,100719.00
2022-11-09T20:55:42.023Z,100721.16
2022-11-09T20:58:41.452Z,100727.47
2022-11-09T21:01:42.473Z,100724.28
2022-11-09T21:04:44.114Z,100729.91
2022-11-09T21:07:43.990Z,100727.25
2022-11-09T21:10:45.902Z,100726.59
2022-11-09T21:13:46.003Z,100729.56
2022-11-09T21:16:45.031Z,100730.25
2022-11-09T21:19:44.044Z,100738.72
2022-11-09T21:22:59.942Z,100745.88
2022-11-09T21:26:19.296Z,100741.03
2022-11-09T21:29:37.851Z,100743.03
2022-11-09T21:32:40.096Z,100751.84
2022-11-09T21:35:40.189Z,100751.00
2022-11-09T21:38:39.026Z,100759.44
2022-11-09T21:41:38.185Z,100760.59
2022-11-09T21:44:36.896Z,100776.50
2022-11-09T21:47:37.292Z,100781.28
2022-11-09T21:50:55.726Z,100786.59
2022-11-09T21:53:56.751Z,100795.91
2022-11-09T21:56:53.503Z,100789.91
2022-11-09T21:59:54.753Z,100786.94
2022-11-09T22:02:53.355Z,100786.09
2022-11-09T22:05:52.402Z,100798.41
2022-11-09T22:08:53.409Z,100804.38
2022-11-09T22:12:09.374Z,100810.88
2022-11-09T22:15:28.024Z,100806.88
2022-11-09T22:19:05.133Z,100816.53
2022-11-09T22:22:06.162Z,100816.34
2022-11-09T22:25:05.178Z,100820.25
2022-11-09T22:28:06.005Z,100825.25
2022-11-09T22:31:04.587Z,100828.59
2022-11-09T22:34:03.639Z,100825.63
2022-11-09T22:37:03.427Z,100828.94
2022-11-09T22:40:03.039Z,100838.91
2022-11-09T22:43:02.041Z,100836.34
2022-11-09T22:46:23.853Z,100842.50
2022-11-09T22:49:22.771Z,100842.38
2022-11-09T22:52:21.461Z,100843.19
2022-11-09T22:55:30.298Z,100855.69
2022-11-09T22:58:31.304Z,100862.66
2022-11-09T23:01:31.945Z,100867.00
2022-11-09T23:04:32.463Z,100876.66
2022-11-09T23:07:31.145Z,100883.13
2022-11-09T23:10:32.174Z,100880.31
2022-11-09T23:13:32.781Z,100883.66
2022-11-09T23:16:33.012Z,100897.81
2022-11-09T23:19:54.745Z,100896.44
2022-11-09T23:23:03.481Z,100898.28
2022-11-09T23:26:25.119Z,100896.88
2022-11-09T23:29:35.354Z,100909.53
2022-11-09T23:32:36.372Z,100909.69
2022-11-09T23:35:35.055Z,100911.28
2022-11-09T23:38:34.521Z,100919.56
2022-11-09T23:41:34.556Z,100917.50
2022-11-09T23:44:33.607Z,100913.94
2022-11-09T23:47:32.591Z,100923.59
2022-11-09T23:50:31.604Z,100928.28
2022-11-09T23:53:31.108Z,100925.78
2022-11-09T23:56:33.478Z,100936.91
2022-11-09T23:59:33.383Z,100946.44
